Time;durP1;ratioP1;P1;durP2;ratioP2;P2;SDS_P1;SDS_P2;PMS_P1;PMS_P2;Temp;Humidity;BMP_temperature;BMP_pressure;BME280_temperature;BME280_humidity;BME280_pressure;Samples;Min_cycle;Max_cycle;Signal;HPM_P1;HPM_P2
2022/03/18 00:02:26;;;;;;;40.97;20.60;;;;;;;;;;4978601;28;20026;-81
2022/03/18 00:04:53;;;;;;;50.95;22.00;;;;;;;;;;5019581;28;20037;-81
2022/03/18 00:07:23;;;;;;;45.28;22.08;;;;;;;;;;5006053;28;20049;-82
2022/03/18 00:09:49;;;;;;;43.53;21.65;;;;;;;;;;4986330;28;20037;-81
2022/03/18 00:12:15;;;;;;;37.28;19.13;;;;;;;;;;4996898;28;20477;-81
2022/03/18 00:14:41;;;;;;;42.83;20.70;;;;;;;;;;4995481;28;20030;-80
2022/03/18 00:17:08;;;;;;;37.65;18.77;;;;;;;;;;4996949;28;20033;-80
2022/03/18 00:19:38;;;;;;;38.38;19.60;;;;;;;;;;4978544;28;20508;-80
2022/03/18 00:22:04;;;;;;;42.28;20.02;;;;;;;;;;4979425;28;20114;-80
2022/03/18 00:24:33;;;;;;;36.25;18.65;;;;;;;;;;4979125;28;20049;-81
2022/03/18 00:27:00;;;;;;;35.83;17.60;;;;;;;;;;4997003;28;20499;-81
2022/03/18 00:29:26;;;;;;;38.17;19.88;;;;;;;;;;4997262;28;20113;-81
2022/03/18 00:31:52;;;;;;;42.53;20.27;;;;;;;;;;4979142;28;20105;-81
2022/03/18 00:34:18;;;;;;;33.22;16.90;;;;;;;;;;4979075;28;20030;-80
2022/03/18 00:36:43;;;;;;;28.77;16.85;;;;;;;;;;4970794;28;20397;-81
2022/03/18 00:39:09;;;;;;;34.08;17.02;;;;;;;;;;4986203;28;20094;-81
2022/03/18 00:41:34;;;;;;;29.02;16.02;;;;;;;;;;4967360;28;20062;-81
2022/03/18 00:44:00;;;;;;;35.20;17.45;;;;;;;;;;4992630;28;20027;-81
2022/03/18 00:46:25;;;;;;;32.28;16.30;;;;;;;;;;4996865;28;20504;-85
2022/03/18 00:54:20;;;;;;;28.13;13.73;;;;;;;;;;4982169;28;20049;-81
2022/03/18 00:56:46;;;;;;;26.45;14.40;;;;;;;;;;4980638;28;20034;-81
2022/03/18 00:59:12;;;;;;;27.70;14.63;;;;;;;;;;4966013;28;20544;-81
2022/03/18 01:01:37;;;;;;;31.20;15.13;;;;;;;;;;4968728;28;20204;-81
2022/03/18 01:04:04;;;;;;;25.88;13.25;;;;;;;;;;4958729;28;20035;-80
2022/03/18 01:06:30;;;;;;;29.27;14.98;;;;;;;;;;4966559;28;20180;-80
2022/03/18 01:08:55;;;;;;;26.55;14.23;;;;;;;;;;4978360;28;20097;-81
2022/03/18 01:11:21;;;;;;;27.80;14.98;;;;;;;;;;4970727;28;20497;-80
2022/03/18 01:13:46;;;;;;;28.00;15.10;;;;;;;;;;4987823;28;20030;-79
2022/03/18 01:16:11;;;;;;;25.25;14.45;;;;;;;;;;4992354;28;20030;-81
2022/03/18 01:18:37;;;;;;;25.73;14.32;;;;;;;;;;4997607;28;20110;-81
2022/03/18 01:21:03;;;;;;;22.25;13.52;;;;;;;;;;4987101;28;20025;-81
2022/03/18 01:23:29;;;;;;;26.95;14.80;;;;;;;;;;4980187;28;20540;-81
2022/03/18 01:25:55;;;;;;;26.02;14.60;;;;;;;;;;5001997;28;20022;-78
2022/03/18 01:28:21;;;;;;;32.03;15.40;;;;;;;;;;4991056;28;20270;-81
2022/03/18 01:30:47;;;;;;;28.95;14.30;;;;;;;;;;4997826;28;20077;-81
2022/03/18 01:33:12;;;;;;;27.20;13.88;;;;;;;;;;5005023;28;20114;-80
2022/03/18 01:35:38;;;;;;;26.23;13.38;;;;;;;;;;4994022;28;20033;-81
2022/03/18 01:38:03;;;;;;;25.20;13.50;;;;;;;;;;4983792;28;20023;-80
2022/03/18 01:40:29;;;;;;;25.90;13.27;;;;;;;;;;4963705;28;20030;-79
2022/03/18 01:42:54;;;;;;;26.35;13.25;;;;;;;;;;4954897;28;20082;-79
2022/03/18 01:45:20;;;;;;;25.15;14.10;;;;;;;;;;4974883;28;20027;-79
2022/03/18 01:47:46;;;;;;;22.55;13.35;;;;;;;;;;4973352;28;20034;-80
2022/03/18 01:50:13;;;;;;;24.67;13.60;;;;;;;;;;4966849;28;20089;-79
2022/03/18 01:52:38;;;;;;;24.38;14.07;;;;;;;;;;4964721;28;20030;-80
2022/03/18 01:55:05;;;;;;;22.85;13.98;;;;;;;;;;4983070;28;20039;-80
2022/03/18 01:57:30;;;;;;;26.70;14.48;;;;;;;;;;4971241;28;20030;-80
2022/03/18 01:59:57;;;;;;;29.65;14.13;;;;;;;;;;4978202;28;20029;-80
2022/03/18 02:02:22;;;;;;;25.63;12.68;;;;;;;;;;4986554;28;20416;-79
2022/03/18 02:04:48;;;;;;;24.35;13.55;;;;;;;;;;4980811;28;20117;-80
2022/03/18 02:07:14;;;;;;;23.17;13.43;;;;;;;;;;4994775;28;20034;-79
2022/03/18 02:09:40;;;;;;;20.15;12.20;;;;;;;;;;4978715;28;20493;-79
2022/03/18 02:12:07;;;;;;;24.73;13.35;;;;;;;;;;4995552;28;20026;-81
2022/03/18 02:14:44;;;;;;;22.17;12.30;;;;;;;;;;4988650;28;20523;-80
2022/03/18 02:17:14;;;;;;;25.38;13.43;;;;;;;;;;4976313;28;20073;-80
2022/03/18 02:19:41;;;;;;;27.63;12.73;;;;;;;;;;4970114;28;20656;-81
2022/03/18 02:22:17;;;;;;;23.55;13.38;;;;;;;;;;4977639;28;20030;-80
2022/03/18 02:24:45;;;;;;;21.90;12.95;;;;;;;;;;4994859;28;20026;-80
2022/03/18 02:27:11;;;;;;;22.55;12.73;;;;;;;;;;4969086;28;20486;-79
2022/03/18 02:29:37;;;;;;;20.08;11.98;;;;;;;;;;4976873;28;20030;-80
2022/03/18 02:32:04;;;;;;;25.40;12.77;;;;;;;;;;5004169;28;20018;-81
2022/03/18 02:34:30;;;;;;;26.05;12.80;;;;;;;;;;4984166;28;20054;-81
2022/03/18 02:36:55;;;;;;;23.73;12.00;;;;;;;;;;4976836;28;20093;-81
2022/03/18 02:39:21;;;;;;;21.85;12.20;;;;;;;;;;4994919;28;20070;-81
2022/03/18 02:41:46;;;;;;;26.33;13.68;;;;;;;;;;5000547;28;20089;-80
2022/03/18 02:44:11;;;;;;;22.58;12.27;;;;;;;;;;5000533;28;20034;-81
2022/03/18 02:46:37;;;;;;;22.65;11.70;;;;;;;;;;4970718;28;20026;-78
2022/03/18 02:49:04;;;;;;;20.80;10.75;;;;;;;;;;4991135;28;20508;-79
2022/03/18 02:51:30;;;;;;;20.38;11.55;;;;;;;;;;4984437;28;20026;-80
2022/03/18 02:53:56;;;;;;;21.85;11.95;;;;;;;;;;4985665;28;20088;-80
2022/03/18 02:56:22;;;;;;;21.65;12.07;;;;;;;;;;5013952;28;20034;-80
2022/03/18 02:58:47;;;;;;;19.77;10.77;;;;;;;;;;5014697;28;20052;-80
2022/03/18 03:01:13;;;;;;;20.92;10.77;;;;;;;;;;4996487;28;20037;-80
2022/03/18 03:03:38;;;;;;;18.27;11.18;;;;;;;;;;4999116;28;20082;-81
2022/03/18 03:08:49;;;;;;;18.33;9.23;;;;;;;;;;5015752;28;20041;-80
2022/03/18 03:11:16;;;;;;;19.00;10.30;;;;;;;;;;4977851;28;20045;-79
2022/03/18 03:13:43;;;;;;;15.38;9.82;;;;;;;;;;4988779;28;20030;-80
2022/03/18 03:16:08;;;;;;;19.92;10.57;;;;;;;;;;4981763;28;20449;-79
2022/03/18 03:18:35;;;;;;;19.90;9.98;;;;;;;;;;5002715;28;20036;-81
2022/03/18 03:21:01;;;;;;;17.13;9.85;;;;;;;;;;4998071;28;20034;-80
2022/03/18 03:23:26;;;;;;;16.42;9.93;;;;;;;;;;5006319;28;20177;-79
2022/03/18 03:25:53;;;;;;;20.77;10.60;;;;;;;;;;4986269;28;20041;-78
2022/03/18 03:28:18;;;;;;;17.00;9.32;;;;;;;;;;4987338;28;20030;-80
2022/03/18 03:30:44;;;;;;;21.35;9.98;;;;;;;;;;5005135;28;20098;-80
2022/03/18 03:33:10;;;;;;;15.35;9.45;;;;;;;;;;4987853;28;20309;-80
2022/03/18 03:35:35;;;;;;;17.95;9.65;;;;;;;;;;4990174;28;20022;-80
2022/03/18 03:38:01;;;;;;;19.83;9.55;;;;;;;;;;4989028;28;20026;-81
2022/03/18 03:40:26;;;;;;;19.55;9.18;;;;;;;;;;4981684;28;20031;-81
2022/03/18 03:42:53;;;;;;;17.75;9.63;;;;;;;;;;4965895;28;20030;-80
2022/03/18 03:45:18;;;;;;;15.68;9.52;;;;;;;;;;4990717;28;20054;-80
2022/03/18 03:47:44;;;;;;;15.65;9.48;;;;;;;;;;4973462;28;20081;-81
2022/03/18 03:50:10;;;;;;;17.83;9.45;;;;;;;;;;4980709;28;20030;-79
2022/03/18 03:52:36;;;;;;;24.52;10.18;;;;;;;;;;4966346;28;20027;-80
2022/03/18 03:55:03;;;;;;;17.58;10.55;;;;;;;;;;4988764;28;20033;-80
2022/03/18 03:57:28;;;;;;;15.95;9.80;;;;;;;;;;4986958;28;20029;-80
2022/03/18 03:59:53;;;;;;;19.08;10.15;;;;;;;;;;4984172;28;20030;-82
2022/03/18 04:02:20;;;;;;;20.33;10.13;;;;;;;;;;4999567;28;20022;-82
2022/03/18 04:04:47;;;;;;;18.38;9.80;;;;;;;;;;4993228;28;20113;-81
2022/03/18 04:07:12;;;;;;;16.88;10.20;;;;;;;;;;4993609;28;20104;-82
2022/03/18 04:09:37;;;;;;;19.38;10.52;;;;;;;;;;4976636;28;20066;-82
2022/03/18 04:12:03;;;;;;;16.17;9.32;;;;;;;;;;4992587;28;20037;-81
2022/03/18 04:14:29;;;;;;;21.00;10.13;;;;;;;;;;5004070;28;20396;-81
2022/03/18 04:16:54;;;;;;;17.48;9.27;;;;;;;;;;5000565;28;20045;-82
2022/03/18 04:19:19;;;;;;;15.40;8.77;;;;;;;;;;4990870;28;20101;-82
2022/03/18 04:21:45;;;;;;;15.70;8.98;;;;;;;;;;4981964;28;20030;-81
2022/03/18 04:24:10;;;;;;;16.08;9.07;;;;;;;;;;4985057;28;20031;-81
2022/03/18 04:26:35;;;;;;;18.67;9.70;;;;;;;;;;4986425;28;20481;-81
2022/03/18 04:29:01;;;;;;;18.55;9.70;;;;;;;;;;4974270;28;20070;-80
2022/03/18 04:31:26;;;;;;;14.32;9.10;;;;;;;;;;4986090;28;20023;-81
2022/03/18 04:33:52;;;;;;;14.73;8.85;;;;;;;;;;4978613;28;20501;-81
2022/03/18 04:36:17;;;;;;;17.90;10.00;;;;;;;;;;4991630;28;20025;-80
2022/03/18 04:38:42;;;;;;;15.05;8.90;;;;;;;;;;4987582;28;20027;-80
2022/03/18 04:41:08;;;;;;;17.02;9.32;;;;;;;;;;4979859;28;20370;-81
2022/03/18 04:43:33;;;;;;;19.02;9.27;;;;;;;;;;4970732;28;20034;-81
2022/03/18 04:45:58;;;;;;;15.30;9.23;;;;;;;;;;5001567;28;20062;-81
2022/03/18 04:48:24;;;;;;;16.33;9.70;;;;;;;;;;4995016;28;20027;-81
2022/03/18 04:50:49;;;;;;;16.02;9.65;;;;;;;;;;4998446;28;20026;-81
2022/03/18 04:53:14;;;;;;;16.98;9.30;;;;;;;;;;4993257;28;20085;-81
2022/03/18 04:55:40;;;;;;;18.70;9.95;;;;;;;;;;4993932;28;20491;-81
2022/03/18 04:58:05;;;;;;;16.85;9.32;;;;;;;;;;4997235;28;20026;-81
2022/03/18 05:00:31;;;;;;;22.38;9.85;;;;;;;;;;4981076;28;20031;-81
2022/03/18 05:02:57;;;;;;;20.13;9.23;;;;;;;;;;4992507;28;20389;-81
2022/03/18 05:05:22;;;;;;;18.15;9.35;;;;;;;;;;4983275;28;20053;-81
2022/03/18 05:07:49;;;;;;;19.55;10.20;;;;;;;;;;4991376;28;20054;-81
2022/03/18 05:10:18;;;;;;;17.88;10.55;;;;;;;;;;4990146;28;20022;-81
2022/03/18 05:12:45;;;;;;;15.30;9.32;;;;;;;;;;4976623;28;20027;-81
2022/03/18 05:15:11;;;;;;;15.82;9.25;;;;;;;;;;4974354;28;20054;-81
2022/03/18 05:17:39;;;;;;;15.63;8.73;;;;;;;;;;5000102;28;20030;-81
2022/03/18 05:20:07;;;;;;;17.92;9.90;;;;;;;;;;4988298;28;20023;-81
2022/03/18 05:22:32;;;;;;;19.88;9.50;;;;;;;;;;5003064;28;20092;-81
2022/03/18 05:24:59;;;;;;;19.15;11.05;;;;;;;;;;5032728;28;20026;-81
2022/03/18 05:27:25;;;;;;;17.52;10.07;;;;;;;;;;5018812;28;20032;-81
2022/03/18 05:29:51;;;;;;;19.20;9.75;;;;;;;;;;4999678;28;20266;-81
2022/03/18 05:32:17;;;;;;;17.27;9.63;;;;;;;;;;4995725;28;20007;-82
2022/03/18 05:34:43;;;;;;;15.88;9.95;;;;;;;;;;4999640;28;20031;-82
2022/03/18 05:37:09;;;;;;;17.63;10.05;;;;;;;;;;4980554;28;20046;-80
2022/03/18 05:39:34;;;;;;;21.40;11.35;;;;;;;;;;4998090;28;20501;-81
2022/03/18 05:42:00;;;;;;;16.35;10.20;;;;;;;;;;4992300;28;20027;-78
2022/03/18 05:44:26;;;;;;;19.45;10.68;;;;;;;;;;4988765;28;20045;-79
2022/03/18 05:46:51;;;;;;;18.65;10.07;;;;;;;;;;5021154;28;20053;-80
2022/03/18 05:49:18;;;;;;;19.88;11.05;;;;;;;;;;4999658;28;20032;-81
2022/03/18 05:51:44;;;;;;;18.92;10.52;;;;;;;;;;5019401;28;20025;-81
2022/03/18 05:54:10;;;;;;;19.88;11.23;;;;;;;;;;5023406;28;20030;-82
2022/03/18 05:56:54;;;;;;;19.88;10.77;;;;;;;;;;5012060;28;20041;-82
2022/03/18 05:59:27;;;;;;;19.52;11.63;;;;;;;;;;5005205;28;20033;-81
2022/03/18 06:01:55;;;;;;;23.65;12.20;;;;;;;;;;5019715;28;20026;-80
2022/03/18 06:04:22;;;;;;;23.20;11.30;;;;;;;;;;4993295;28;20022;-82
2022/03/18 06:06:48;;;;;;;21.70;12.07;;;;;;;;;;4990090;28;20080;-82
2022/03/18 06:11:59;;;;;;;25.63;11.65;;;;;;;;;;5006835;28;20048;-81
2022/03/18 06:14:27;;;;;;;23.75;12.48;;;;;;;;;;4988895;28;20405;-81
2022/03/18 06:16:55;;;;;;;21.65;11.40;;;;;;;;;;5007652;28;20029;-81
2022/03/18 06:19:22;;;;;;;20.70;11.82;;;;;;;;;;4987404;28;20583;-82
2022/03/18 06:21:48;;;;;;;22.15;11.80;;;;;;;;;;5007303;28;20030;-80
2022/03/18 06:24:14;;;;;;;23.63;12.80;;;;;;;;;;5001854;28;20050;-80
2022/03/18 06:26:40;;;;;;;23.58;12.07;;;;;;;;;;4988367;28;20022;-83
2022/03/18 06:29:06;;;;;;;22.40;11.02;;;;;;;;;;5006065;28;20560;-81
2022/03/18 06:31:33;;;;;;;24.33;12.90;;;;;;;;;;5008286;28;20392;-80
2022/03/18 06:33:58;;;;;;;23.20;13.15;;;;;;;;;;5016977;28;20022;-80
2022/03/18 06:36:24;;;;;;;21.83;12.93;;;;;;;;;;5006740;28;20526;-81
2022/03/18 06:38:50;;;;;;;23.90;11.93;;;;;;;;;;5007553;28;20429;-81
2022/03/18 06:41:16;;;;;;;27.27;13.50;;;;;;;;;;5000321;28;20022;-80
2022/03/18 06:43:42;;;;;;;23.98;13.50;;;;;;;;;;5006448;28;20054;-81
2022/03/18 06:46:08;;;;;;;21.90;12.65;;;;;;;;;;5004858;28;20022;-80
2022/03/18 06:48:33;;;;;;;21.88;13.02;;;;;;;;;;4999894;28;20079;-81
2022/03/18 06:51:00;;;;;;;24.95;13.00;;;;;;;;;;5016223;28;20028;-80
2022/03/18 06:53:26;;;;;;;25.33;13.52;;;;;;;;;;4992810;28;20022;-80
2022/03/18 06:55:51;;;;;;;22.80;12.82;;;;;;;;;;5011815;28;20125;-79
2022/03/18 06:58:16;;;;;;;26.25;13.43;;;;;;;;;;5026375;28;20050;-80
2022/03/18 07:00:42;;;;;;;26.35;13.95;;;;;;;;;;5003159;28;20058;-79
2022/03/18 07:03:07;;;;;;;23.35;13.57;;;;;;;;;;4984770;28;20085;-81
2022/03/18 07:05:32;;;;;;;25.48;14.70;;;;;;;;;;4987581;28;20026;-79
2022/03/18 07:07:59;;;;;;;27.80;14.60;;;;;;;;;;4988033;28;20031;-80
2022/03/18 07:10:24;;;;;;;25.63;13.25;;;;;;;;;;4988352;28;20028;-80
2022/03/18 07:12:50;;;;;;;25.33;14.50;;;;;;;;;;4989647;28;20054;-81
2022/03/18 07:15:15;;;;;;;26.95;15.75;;;;;;;;;;4986207;28;20030;-80
2022/03/18 07:17:58;;;;;;;27.13;14.25;;;;;;;;;;5017479;28;20129;-80
2022/03/18 07:20:28;;;;;;;25.00;14.60;;;;;;;;;;5018164;28;20103;-81
2022/03/18 07:23:04;;;;;;;23.85;13.23;;;;;;;;;;5023182;28;20027;-79
2022/03/18 07:25:30;;;;;;;22.83;12.98;;;;;;;;;;5015004;28;20053;-81
2022/03/18 07:27:56;;;;;;;22.95;12.57;;;;;;;;;;5023989;28;20046;-81
2022/03/18 07:30:23;;;;;;;25.05;13.65;;;;;;;;;;4993381;28;20025;-81
2022/03/18 07:32:48;;;;;;;23.65;13.45;;;;;;;;;;5007256;28;20113;-80
2022/03/18 07:35:14;;;;;;;28.75;15.27;;;;;;;;;;4980155;28;20047;-83
2022/03/18 07:37:40;;;;;;;28.98;15.48;;;;;;;;;;4981587;28;20037;-82
2022/03/18 07:40:08;;;;;;;35.05;15.45;;;;;;;;;;4998863;28;20048;-81
2022/03/18 07:42:46;;;;;;;24.05;13.73;;;;;;;;;;4978115;28;20033;-81
2022/03/18 07:45:18;;;;;;;28.88;15.10;;;;;;;;;;4988642;28;20026;-82
2022/03/18 07:47:44;;;;;;;33.35;17.92;;;;;;;;;;4989253;28;20959;-81
2022/03/18 07:50:09;;;;;;;38.03;20.33;;;;;;;;;;5010997;28;20035;-80
2022/03/18 07:52:35;;;;;;;30.10;15.88;;;;;;;;;;5030265;28;20026;-82
2022/03/18 07:55:01;;;;;;;30.17;17.23;;;;;;;;;;5010153;28;20033;-82
2022/03/18 07:57:27;;;;;;;34.20;20.08;;;;;;;;;;5008840;28;20038;-82
2022/03/18 07:59:52;;;;;;;38.25;20.58;;;;;;;;;;4990108;28;20027;-82
2022/03/18 08:02:18;;;;;;;41.38;19.92;;;;;;;;;;4983955;28;20045;-82
2022/03/18 08:04:44;;;;;;;37.65;19.75;;;;;;;;;;5001050;28;20026;-82
2022/03/18 08:07:10;;;;;;;37.92;20.60;;;;;;;;;;5005832;28;20147;-81
2022/03/18 08:09:35;;;;;;;39.13;21.92;;;;;;;;;;4977814;28;20055;-82
2022/03/18 08:12:01;;;;;;;40.65;21.25;;;;;;;;;;5000576;28;20041;-81
2022/03/18 08:14:26;;;;;;;39.67;20.02;;;;;;;;;;4983025;28;20033;-81
2022/03/18 08:16:51;;;;;;;36.45;19.33;;;;;;;;;;5007157;28;20034;-82
2022/03/18 08:19:17;;;;;;;38.92;20.77;;;;;;;;;;5008836;28;20026;-82
2022/03/18 08:21:43;;;;;;;31.00;17.48;;;;;;;;;;5008601;28;20030;-82
2022/03/18 08:26:43;;;;;;;40.80;20.73;;;;;;;;;;4692049;26;20056;-82
2022/03/18 08:29:09;;;;;;;41.33;22.05;;;;;;;;;;5040073;28;20026;-81
2022/03/18 08:31:34;;;;;;;37.42;18.83;;;;;;;;;;5024325;28;20164;-81
2022/03/18 08:34:00;;;;;;;40.80;19.77;;;;;;;;;;5028231;28;20112;-81
2022/03/18 08:36:26;;;;;;;33.38;18.60;;;;;;;;;;5020737;28;20124;-81
2022/03/18 08:38:51;;;;;;;30.95;18.15;;;;;;;;;;5043015;28;20049;-80
2022/03/18 08:41:23;;;;;;;34.80;18.75;;;;;;;;;;5020310;28;20029;-80
2022/03/18 08:43:48;;;;;;;37.22;19.13;;;;;;;;;;5036037;28;20032;-80
2022/03/18 08:46:14;;;;;;;34.03;19.38;;;;;;;;;;5039690;28;20025;-80
2022/03/18 08:48:39;;;;;;;36.97;19.45;;;;;;;;;;5024813;28;20433;-80
2022/03/18 08:51:04;;;;;;;31.13;18.65;;;;;;;;;;5035531;28;20032;-81
2022/03/18 08:53:30;;;;;;;32.58;18.17;;;;;;;;;;5021545;28;20025;-80
2022/03/18 08:55:56;;;;;;;35.28;18.40;;;;;;;;;;5040154;28;20025;-81
2022/03/18 08:58:22;;;;;;;33.67;18.33;;;;;;;;;;5039091;28;20022;-81
2022/03/18 09:00:47;;;;;;;32.40;17.30;;;;;;;;;;5016155;28;20361;-82
2022/03/18 09:03:13;;;;;;;32.17;17.30;;;;;;;;;;5029678;28;20873;-82
2022/03/18 09:05:38;;;;;;;29.15;15.18;;;;;;;;;;5020866;28;20036;-82
2022/03/18 09:08:04;;;;;;;35.47;16.48;;;;;;;;;;5039003;28;20029;-81
2022/03/18 09:10:31;;;;;;;31.55;17.40;;;;;;;;;;5020943;28;20423;-81
2022/03/18 09:12:59;;;;;;;31.98;16.35;;;;;;;;;;5039363;28;20026;-82
2022/03/18 09:15:25;;;;;;;32.85;16.35;;;;;;;;;;5015259;28;20022;-81
2022/03/18 09:17:51;;;;;;;31.90;16.52;;;;;;;;;;5010785;28;20014;-80
2022/03/18 09:20:16;;;;;;;30.20;17.38;;;;;;;;;;5011058;28;20034;-80
2022/03/18 09:22:42;;;;;;;33.50;17.02;;;;;;;;;;5008960;28;20479;-80
2022/03/18 09:25:08;;;;;;;30.60;17.20;;;;;;;;;;5021568;28;20042;-80
2022/03/18 09:27:33;;;;;;;30.67;16.58;;;;;;;;;;5014943;28;20026;-81
2022/03/18 09:30:00;;;;;;;27.92;16.15;;;;;;;;;;5020228;28;20026;-80
2022/03/18 09:32:27;;;;;;;32.20;16.80;;;;;;;;;;5033878;28;20031;-81
2022/03/18 09:34:52;;;;;;;30.70;17.00;;;;;;;;;;5017003;28;20044;-81
2022/03/18 09:37:18;;;;;;;29.35;15.52;;;;;;;;;;5009934;28;20018;-80
2022/03/18 09:39:43;;;;;;;31.88;17.17;;;;;;;;;;5013293;28;20045;-81
2022/03/18 09:42:09;;;;;;;35.95;17.27;;;;;;;;;;5001902;28;20026;-81
2022/03/18 09:44:36;;;;;;;32.88;17.30;;;;;;;;;;5014959;28;20023;-79
2022/03/18 09:47:03;;;;;;;31.58;16.20;;;;;;;;;;5008041;28;20014;-80
2022/03/18 09:49:29;;;;;;;34.60;17.48;;;;;;;;;;4992664;28;20025;-81
2022/03/18 09:51:55;;;;;;;34.05;17.05;;;;;;;;;;5009093;28;20054;-80
2022/03/18 09:54:21;;;;;;;36.40;15.63;;;;;;;;;;4991899;28;20025;-80
2022/03/18 09:56:48;;;;;;;33.40;16.90;;;;;;;;;;5006762;28;20018;-80
2022/03/18 09:59:14;;;;;;;27.73;16.05;;;;;;;;;;5005667;28;20431;-82
2022/03/18 10:01:39;;;;;;;37.40;18.33;;;;;;;;;;5014212;28;20111;-81
2022/03/18 10:04:08;;;;;;;29.73;16.45;;;;;;;;;;5010299;28;20023;-81
2022/03/18 10:06:34;;;;;;;32.70;16.90;;;;;;;;;;5003263;28;20026;-81
2022/03/18 10:09:01;;;;;;;34.50;18.13;;;;;;;;;;5016555;28;20082;-80
2022/03/18 10:11:32;;;;;;;29.65;17.65;;;;;;;;;;5016458;28;20026;-80
2022/03/18 10:14:07;;;;;;;32.70;18.25;;;;;;;;;;5008847;28;20026;-80
2022/03/18 10:16:40;;;;;;;38.65;20.27;;;;;;;;;;5009666;28;20435;-81
2022/03/18 10:19:17;;;;;;;38.80;20.30;;;;;;;;;;5009027;28;20025;-81
2022/03/18 10:21:57;;;;;;;34.25;19.02;;;;;;;;;;4988687;28;20018;-81
2022/03/18 10:24:24;;;;;;;38.28;19.05;;;;;;;;;;5006603;28;20026;-80
2022/03/18 10:26:52;;;;;;;38.58;19.48;;;;;;;;;;5003442;28;20018;-81
2022/03/18 10:29:18;;;;;;;35.38;18.60;;;;;;;;;;5001616;28;20026;-79
2022/03/18 10:31:59;;;;;;;36.70;19.58;;;;;;;;;;4993962;28;20022;-78
2022/03/18 10:37:22;;;;;;;37.38;19.25;;;;;;;;;;5005743;28;20342;-81
2022/03/18 10:39:50;;;;;;;45.15;16.58;;;;;;;;;;4988474;28;20343;-81
2022/03/18 10:42:17;;;;;;;35.58;18.83;;;;;;;;;;5001048;28;20014;-83
2022/03/18 10:44:51;;;;;;;30.30;18.13;;;;;;;;;;4991754;28;20029;-81
2022/03/18 10:47:23;;;;;;;34.45;19.05;;;;;;;;;;4995605;28;20034;-81
2022/03/18 10:49:49;;;;;;;40.75;19.20;;;;;;;;;;5007152;28;20026;-80
2022/03/18 10:52:15;;;;;;;33.30;20.27;;;;;;;;;;5008206;28;20034;-81
2022/03/18 10:55:41;;;;;;;;;;;;;;;;;;;;;
2022/03/18 10:58:19;;;;;;;31.42;18.08;;;;;;;;;;5007513;28;20525;-82
2022/03/18 11:00:46;;;;;;;35.88;19.90;;;;;;;;;;5011080;28;20022;-81
2022/03/18 11:03:13;;;;;;;36.30;20.23;;;;;;;;;;5013520;28;20469;-79
2022/03/18 11:05:41;;;;;;;35.20;18.92;;;;;;;;;;4986243;28;20083;-80
2022/03/18 11:08:10;;;;;;;38.33;20.23;;;;;;;;;;5002293;28;20090;-80
2022/03/18 11:13:27;;;;;;;28.83;17.65;;;;;;;;;;5009127;28;20028;-80
2022/03/18 11:15:53;;;;;;;29.60;18.00;;;;;;;;;;5006576;28;20027;-81
2022/03/18 11:18:19;;;;;;;26.75;16.13;;;;;;;;;;4991042;28;20022;-80
2022/03/18 11:20:45;;;;;;;28.52;17.90;;;;;;;;;;5014730;28;20026;-80
2022/03/18 11:23:23;;;;;;;34.30;19.60;;;;;;;;;;5008553;28;20519;-80
2022/03/18 11:25:54;;;;;;;30.30;18.35;;;;;;;;;;5007774;28;20120;-79
2022/03/18 11:28:20;;;;;;;33.25;17.83;;;;;;;;;;5009462;28;20557;-80
2022/03/18 11:30:47;;;;;;;29.45;16.65;;;;;;;;;;5005985;28;20031;-80
2022/03/18 11:33:18;;;;;;;35.70;19.38;;;;;;;;;;5013588;28;20480;-80
2022/03/18 11:35:49;;;;;;;31.20;17.08;;;;;;;;;;5012256;28;20034;-81
2022/03/18 11:38:23;;;;;;;34.50;17.83;;;;;;;;;;5011580;28;20539;-79
2022/03/18 11:40:53;;;;;;;29.45;17.45;;;;;;;;;;5015101;28;20026;-79
2022/03/18 11:43:44;;;;;;;35.45;18.85;;;;;;;;;;5013480;28;20031;-83
2022/03/18 11:46:13;;;;;;;30.77;17.45;;;;;;;;;;5005940;28;20034;-81
2022/03/18 11:48:48;;;;;;;37.72;18.52;;;;;;;;;;4997221;28;20084;-81
2022/03/18 11:51:29;;;;;;;30.67;17.73;;;;;;;;;;4977095;28;20039;-81
2022/03/18 11:54:24;;;;;;;31.33;16.77;;;;;;;;;;4993454;28;20385;-81
2022/03/18 11:56:54;;;;;;;34.20;17.42;;;;;;;;;;4976661;28;20040;-81
2022/03/18 11:59:26;;;;;;;31.17;18.73;;;;;;;;;;4996926;28;20025;-80
2022/03/18 12:02:08;;;;;;;29.50;17.65;;;;;;;;;;4988318;28;20045;-81
2022/03/18 12:04:33;;;;;;;;;;;;;;;;;;5008161;28;20580;-81
2022/03/18 12:07:08;;;;;;;34.63;18.95;;;;;;;;;;5010400;28;20445;-80
2022/03/18 12:10:06;;;;;;;31.80;18.70;;;;;;;;;;4990980;28;20081;-80
2022/03/18 12:12:34;;;;;;;30.00;16.73;;;;;;;;;;5006511;28;20022;-80
2022/03/18 12:15:03;;;;;;;31.20;18.88;;;;;;;;;;5019694;28;20030;-83
2022/03/18 12:17:30;;;;;;;32.17;18.88;;;;;;;;;;5014808;28;20030;-79
2022/03/18 12:19:58;;;;;;;32.78;19.42;;;;;;;;;;5011228;28;20105;-80
2022/03/18 12:22:24;;;;;;;33.15;18.55;;;;;;;;;;5012074;28;20050;-80
2022/03/18 12:24:52;;;;;;;33.25;19.35;;;;;;;;;;5019286;28;20079;-79
2022/03/18 12:27:20;;;;;;;33.85;18.88;;;;;;;;;;5021056;28;20024;-81
2022/03/18 12:29:45;;;;;;;32.08;18.73;;;;;;;;;;5020616;28;20030;-80
2022/03/18 12:32:13;;;;;;;30.60;18.33;;;;;;;;;;5032820;28;20033;-79
2022/03/18 12:34:48;;;;;;;30.13;17.70;;;;;;;;;;5000060;28;20101;-81
2022/03/18 12:37:17;;;;;;;33.40;18.77;;;;;;;;;;4983055;28;20392;-80
2022/03/18 12:39:43;;;;;;;32.22;18.75;;;;;;;;;;5016020;28;20021;-84
2022/03/18 12:42:11;;;;;;;31.98;18.27;;;;;;;;;;5020556;28;20037;-82
2022/03/18 12:44:45;;;;;;;28.42;16.10;;;;;;;;;;5019411;28;20025;-87
2022/03/18 12:47:11;;;;;;;25.40;16.50;;;;;;;;;;5016233;28;20030;-80
2022/03/18 12:49:38;;;;;;;29.02;15.90;;;;;;;;;;5018782;28;20562;-81
2022/03/18 12:52:12;;;;;;;31.58;16.60;;;;;;;;;;5001302;28;20037;-80
2022/03/18 12:54:39;;;;;;;34.45;18.40;;;;;;;;;;4998083;28;20018;-81
2022/03/18 12:57:09;;;;;;;30.95;17.98;;;;;;;;;;5020453;28;20033;-82
2022/03/18 12:59:38;;;;;;;27.15;16.10;;;;;;;;;;5013275;28;20045;-86
2022/03/18 13:02:05;;;;;;;26.98;16.00;;;;;;;;;;5025069;28;20038;-84
2022/03/18 13:04:32;;;;;;;26.35;16.25;;;;;;;;;;5022265;28;20109;-81
2022/03/18 13:06:58;;;;;;;30.60;17.17;;;;;;;;;;5030425;28;20029;-86
2022/03/18 13:09:24;;;;;;;26.90;16.08;;;;;;;;;;5049491;28;20029;-83
2022/03/18 13:11:50;;;;;;;25.98;16.73;;;;;;;;;;5049591;28;20029;-84
2022/03/18 13:14:34;;;;;;;27.50;16.83;;;;;;;;;;5049150;28;20029;-83
2022/03/18 13:17:01;;;;;;;26.90;16.05;;;;;;;;;;5047494;28;20048;-83
2022/03/18 13:19:40;;;;;;;31.48;17.23;;;;;;;;;;5024944;28;20096;-84
2022/03/18 13:22:05;;;;;;;25.20;15.77;;;;;;;;;;5006925;28;20068;-84
2022/03/18 13:24:31;;;;;;;28.58;16.08;;;;;;;;;;5024267;28;20026;-84
2022/03/18 13:26:58;;;;;;;27.65;15.95;;;;;;;;;;5024606;28;20040;-86
2022/03/18 13:32:50;;;;;;;26.20;14.70;;;;;;;;;;5024979;28;20032;-83
2022/03/18 13:34:55;;;;;;;27.95;15.20;;;;;;;;;;5034796;28;20141;-85
2022/03/18 13:37:21;;;;;;;26.25;14.85;;;;;;;;;;5021409;28;20018;-83
2022/03/18 13:39:49;;;;;;;27.48;15.20;;;;;;;;;;5024822;28;20058;-83
2022/03/18 13:42:26;;;;;;;25.63;15.13;;;;;;;;;;5024050;28;20026;-84
2022/03/18 13:44:51;;;;;;;25.40;15.38;;;;;;;;;;5024624;28;20045;-83
2022/03/18 13:47:17;;;;;;;27.33;14.57;;;;;;;;;;5023127;28;20033;-83
2022/03/18 13:49:53;;;;;;;26.15;16.15;;;;;;;;;;5010654;28;20018;-84
2022/03/18 13:52:31;;;;;;;28.15;15.45;;;;;;;;;;5019611;28;20083;-84
2022/03/18 13:54:56;;;;;;;26.65;14.85;;;;;;;;;;5017013;28;20022;-80
2022/03/18 13:57:23;;;;;;;22.85;15.07;;;;;;;;;;5024421;28;20056;-81
2022/03/18 14:00:00;;;;;;;25.77;17.10;;;;;;;;;;5037556;28;20025;-81
2022/03/18 14:02:28;;;;;;;27.77;16.55;;;;;;;;;;5000585;28;20407;-81
2022/03/18 14:04:56;;;;;;;26.00;15.95;;;;;;;;;;5030836;28;20430;-81
2022/03/18 14:07:41;;;;;;;24.60;14.63;;;;;;;;;;5009348;28;20034;-78
2022/03/18 14:10:07;;;;;;;25.60;14.93;;;;;;;;;;5009357;28;20506;-81
2022/03/18 14:12:33;;;;;;;21.00;13.18;;;;;;;;;;4990456;28;20038;-81
2022/03/18 14:15:17;;;;;;;23.15;14.73;;;;;;;;;;5016326;28;20389;-80
2022/03/18 14:17:56;;;;;;;29.30;16.92;;;;;;;;;;5017824;28;20029;-81
2022/03/18 14:20:22;;;;;;;24.13;14.13;;;;;;;;;;5004836;28;20391;-86
2022/03/18 14:22:52;;;;;;;23.25;14.88;;;;;;;;;;5019522;28;20029;-80
2022/03/18 14:25:18;;;;;;;22.52;14.25;;;;;;;;;;5015964;28;20034;-80
2022/03/18 14:27:47;;;;;;;25.33;14.40;;;;;;;;;;5005568;28;20091;-80
2022/03/18 14:30:21;;;;;;;26.10;14.57;;;;;;;;;;5010314;28;20036;-81
2022/03/18 14:32:49;;;;;;;23.33;14.07;;;;;;;;;;5013122;28;20038;-81
2022/03/18 14:35:15;;;;;;;21.55;14.10;;;;;;;;;;5005491;28;20430;-81
2022/03/18 14:37:41;;;;;;;23.25;14.07;;;;;;;;;;4990988;28;20029;-81
2022/03/18 14:40:10;;;;;;;23.80;14.93;;;;;;;;;;5005717;28;20025;-81
2022/03/18 14:42:37;;;;;;;21.45;13.02;;;;;;;;;;5011205;28;20068;-80
2022/03/18 14:45:03;;;;;;;22.23;14.38;;;;;;;;;;5012822;28;20029;-81
2022/03/18 14:47:29;;;;;;;24.23;14.52;;;;;;;;;;5008376;28;20022;-81